createdAt,value
2018-04-30T00:00:32.311Z,16.07
2018-04-30T00:02:59.902Z,15.83
2018-04-30T00:05:27.477Z,16.63
2018-04-30T00:07:55.083Z,17.27
2018-04-30T00:10:22.711Z,17.13
2018-04-30T00:12:50.306Z,16.57
2018-04-30T00:15:17.979Z,18.63
2018-04-30T00:17:45.605Z,16.33
2018-04-30T00:20:13.948Z,16.47
2018-04-30T00:22:41.776Z,16.37
2018-04-30T00:25:09.368Z,17.10
2018-04-30T00:27:36.952Z,16.23
2018-04-30T00:30:04.676Z,17.83
2018-04-30T00:32:32.471Z,17.00
2018-04-30T00:35:00.272Z,16.60
2018-04-30T00:37:28.608Z,16.33
2018-04-30T00:39:56.219Z,16.70
2018-04-30T00:42:23.818Z,16.70
2018-04-30T00:44:51.439Z,17.50
2018-04-30T00:47:19.040Z,17.33
2018-04-30T00:49:46.598Z,17.07
2018-04-30T00:52:14.364Z,18.33
2018-04-30T00:54:53.872Z,17.97
2018-04-30T00:57:21.453Z,17.97
2018-04-30T00:59:49.010Z,18.07
2018-04-30T01:02:16.637Z,20.10
2018-04-30T01:05:05.208Z,17.83
2018-04-30T01:13:30.441Z,19.97
2018-04-30T01:19:04.377Z,19.30
2018-04-30T01:24:16.680Z,20.40
2018-04-30T01:26:44.308Z,21.60
2018-04-30T01:29:11.918Z,22.23
2018-04-30T01:31:39.536Z,21.70
2018-04-30T01:34:07.144Z,25.07
2018-04-30T01:36:34.747Z,22.27
2018-04-30T01:39:03.106Z,22.40
2018-04-30T01:41:31.477Z,25.10
2018-04-30T01:43:59.466Z,20.97
2018-04-30T01:46:28.152Z,23.10
2018-04-30T01:48:55.760Z,21.77
2018-04-30T01:51:23.391Z,21.33
2018-04-30T01:53:51.008Z,22.43
2018-04-30T01:56:18.907Z,18.73
2018-04-30T01:58:46.537Z,21.30
2018-04-30T02:01:14.141Z,21.37
2018-04-30T02:03:41.727Z,24.33
2018-04-30T02:06:09.342Z,21.27
2018-04-30T02:14:53.517Z,22.60
2018-04-30T02:23:23.731Z,25.10
2018-04-30T02:26:09.239Z,21.10
2018-04-30T02:31:44.792Z,22.67
2018-04-30T02:51:13.259Z,22.67
2018-04-30T02:53:40.863Z,26.17
2018-04-30T02:56:10.190Z,25.03
2018-04-30T02:58:37.796Z,24.17
2018-04-30T03:01:05.409Z,24.10
2018-04-30T03:03:33.022Z,22.50
2018-04-30T03:06:00.628Z,26.77
2018-04-30T03:08:28.240Z,24.10
2018-04-30T03:10:56.084Z,28.77
2018-04-30T03:13:23.666Z,26.27
2018-04-30T03:15:51.585Z,28.13
2018-04-30T03:18:20.019Z,24.57
2018-04-30T03:20:47.579Z,21.17
2018-04-30T03:23:15.196Z,25.17
2018-04-30T03:25:43.851Z,25.43
2018-04-30T03:28:11.428Z,24.97
2018-04-30T03:30:40.114Z,24.80
2018-04-30T03:33:08.508Z,26.17
2018-04-30T03:35:36.881Z,24.27
2018-04-30T03:38:05.814Z,21.53
2018-04-30T03:40:33.432Z,21.90
2018-04-30T03:43:02.163Z,20.83
2018-04-30T03:45:29.762Z,23.30
2018-04-30T03:47:57.399Z,21.43
2018-04-30T03:50:25.077Z,24.87
2018-04-30T03:52:52.656Z,24.17
2018-04-30T03:55:21.396Z,27.47
2018-04-30T03:57:49.667Z,22.73
2018-04-30T04:00:29.168Z,25.03
2018-04-30T04:03:09.592Z,23.77
2018-04-30T04:05:49.049Z,31.27
2018-04-30T04:08:16.666Z,25.73
2018-04-30T04:10:44.284Z,28.03
2018-04-30T04:13:12.800Z,26.50
2018-04-30T04:15:40.400Z,26.03
2018-04-30T04:18:07.980Z,28.83
2018-04-30T04:20:36.334Z,27.83
2018-04-30T04:23:03.939Z,25.90
2018-04-30T04:25:31.964Z,23.57
2018-04-30T04:27:59.575Z,24.10
2018-04-30T04:30:27.274Z,22.00
2018-04-30T04:32:54.899Z,22.43
2018-04-30T04:35:22.538Z,24.10
2018-04-30T04:37:50.906Z,25.47
2018-04-30T04:40:19.250Z,25.07
2018-04-30T04:42:46.882Z,23.67
2018-04-30T04:45:14.484Z,30.53
2018-04-30T04:47:42.148Z,23.90
2018-04-30T04:50:11.270Z,30.57
2018-04-30T04:52:40.201Z,24.20
2018-04-30T04:55:07.776Z,23.37
2018-04-30T04:57:35.381Z,21.10
2018-04-30T05:00:03.865Z,23.47
2018-04-30T05:02:31.501Z,21.17
2018-04-30T05:04:59.845Z,17.73
2018-04-30T05:07:27.490Z,18.23
2018-04-30T05:09:55.159Z,22.50
2018-04-30T05:12:22.754Z,20.20
2018-04-30T05:14:50.383Z,18.70
2018-04-30T05:17:17.991Z,20.07
2018-04-30T05:22:49.550Z,24.10
2018-04-30T05:25:17.186Z,25.10
2018-04-30T05:27:44.783Z,24.17
2018-04-30T05:30:12.398Z,22.87
2018-04-30T05:32:40.008Z,19.27
2018-04-30T05:35:07.639Z,20.70
2018-04-30T05:37:35.215Z,20.13
2018-04-30T05:40:02.925Z,18.23
2018-04-30T05:42:31.757Z,20.50
2018-04-30T05:44:59.515Z,15.07
2018-04-30T05:47:28.127Z,18.30
2018-04-30T05:49:56.532Z,16.10
2018-04-30T05:52:24.911Z,17.17
2018-04-30T05:54:52.521Z,17.73
2018-04-30T05:57:20.231Z,16.27
2018-04-30T05:59:47.908Z,16.50
2018-04-30T06:02:16.333Z,13.07
2018-04-30T06:04:43.949Z,12.40
2018-04-30T06:07:11.807Z,16.00
2018-04-30T06:09:40.894Z,14.87
2018-04-30T06:12:08.846Z,16.63
2018-04-30T06:14:37.128Z,20.60
2018-04-30T06:17:04.799Z,22.00
2018-04-30T06:19:33.149Z,21.83
2018-04-30T06:22:00.725Z,25.73
2018-04-30T06:24:29.128Z,29.03
2018-04-30T06:26:57.852Z,24.13
2018-04-30T06:29:25.717Z,19.67
2018-04-30T06:31:53.342Z,19.27
2018-04-30T06:34:21.778Z,20.93
2018-04-30T06:36:49.362Z,21.50
2018-04-30T06:39:18.362Z,23.90
2018-04-30T06:41:46.916Z,21.43
2018-04-30T06:44:14.509Z,17.67
2018-04-30T06:46:42.895Z,18.33
2018-04-30T06:49:12.163Z,19.70
2018-04-30T06:51:39.997Z,18.37
2018-04-30T06:54:07.941Z,15.37
2018-04-30T06:56:35.607Z,15.17
2018-04-30T06:59:03.562Z,14.37
2018-04-30T07:01:32.039Z,15.47
2018-04-30T07:04:00.373Z,15.00
2018-04-30T07:06:28.036Z,14.33
2018-04-30T07:08:55.704Z,11.90
2018-04-30T07:11:23.320Z,13.30
2018-04-30T07:13:50.897Z,11.40
2018-04-30T07:16:18.531Z,12.03
2018-04-30T07:18:46.097Z,14.60
2018-04-30T07:21:13.680Z,11.77
2018-04-30T07:23:41.272Z,12.47
2018-04-30T07:26:08.854Z,14.43
2018-04-30T07:28:37.213Z,17.63
2018-04-30T07:31:04.807Z,13.40
2018-04-30T07:33:32.398Z,16.53
2018-04-30T07:35:59.990Z,15.20
2018-04-30T07:38:27.552Z,12.70
2018-04-30T07:40:55.288Z,18.67
2018-04-30T07:43:22.933Z,15.67
2018-04-30T07:45:50.630Z,14.27
2018-04-30T07:48:18.245Z,10.77
2018-04-30T07:50:45.884Z,9.60
2018-04-30T07:53:14.195Z,7.83
2018-04-30T07:55:41.754Z,7.10
2018-04-30T07:58:09.350Z,8.70
2018-04-30T08:00:37.084Z,6.80
2018-04-30T08:03:04.725Z,6.97
2018-04-30T08:05:32.575Z,6.20
2018-04-30T08:08:00.178Z,9.17
2018-04-30T08:10:27.784Z,8.27
2018-04-30T08:12:56.122Z,8.27
2018-04-30T08:15:23.736Z,9.47
2018-04-30T08:17:52.061Z,6.83
2018-04-30T08:20:19.611Z,6.43
2018-04-30T08:22:47.323Z,6.47
2018-04-30T08:25:15.947Z,8.50
2018-04-30T08:27:43.737Z,8.90
2018-04-30T08:30:11.301Z,6.30
2018-04-30T08:32:38.930Z,7.33
2018-04-30T08:35:06.558Z,7.93
2018-04-30T08:37:34.990Z,11.13
2018-04-30T08:40:02.653Z,6.73
2018-04-30T08:42:30.466Z,8.20
2018-04-30T08:44:58.075Z,5.93
2018-04-30T08:47:25.672Z,8.97
2018-04-30T08:49:54.040Z,8.57
2018-04-30T08:52:21.596Z,7.97
2018-04-30T08:54:49.175Z,7.43
2018-04-30T08:57:16.765Z,7.00
2018-04-30T08:59:44.398Z,4.50
2018-04-30T09:02:12.767Z,7.77
2018-04-30T09:04:41.092Z,6.57
2018-04-30T09:07:08.667Z,6.77
2018-04-30T09:09:36.727Z,4.63
2018-04-30T09:12:04.370Z,5.20
2018-04-30T09:14:31.929Z,5.33
2018-04-30T09:16:59.545Z,4.20
2018-04-30T09:19:27.908Z,4.67
2018-04-30T09:21:55.493Z,5.87
2018-04-30T09:24:23.830Z,7.23
2018-04-30T09:26:51.425Z,5.43
2018-04-30T09:29:19.762Z,6.87
2018-04-30T09:31:47.389Z,5.57
2018-04-30T09:34:14.979Z,4.93
2018-04-30T09:36:42.546Z,4.47
2018-04-30T09:39:10.146Z,5.33
2018-04-30T09:41:38.466Z,6.70
2018-04-30T09:44:06.068Z,5.13
2018-04-30T09:46:33.623Z,5.37
2018-04-30T09:49:01.340Z,7.27
2018-04-30T09:51:28.929Z,4.77
2018-04-30T09:53:56.503Z,5.60
2018-04-30T09:56:24.084Z,5.80
2018-04-30T09:58:52.402Z,6.50
2018-04-30T10:01:20.130Z,6.00
2018-04-30T10:03:47.821Z,5.60
2018-04-30T10:06:16.463Z,6.80
2018-04-30T10:08:44.089Z,9.13
2018-04-30T10:11:11.689Z,6.23
2018-04-30T10:13:40.855Z,7.03
2018-04-30T10:16:08.460Z,7.27
2018-04-30T10:18:36.009Z,4.70
2018-04-30T10:21:04.343Z,6.97
2018-04-30T10:23:32.193Z,6.67
2018-04-30T10:25:59.842Z,6.70
2018-04-30T10:28:27.429Z,4.87
2018-04-30T10:30:55.032Z,6.77
2018-04-30T10:33:23.440Z,5.50
2018-04-30T10:35:50.997Z,6.57
2018-04-30T10:38:18.774Z,7.83
2018-04-30T10:40:46.335Z,8.60
2018-04-30T10:43:13.878Z,7.00
2018-04-30T10:45:41.511Z,7.47
2018-04-30T10:48:10.352Z,6.67
2018-04-30T10:50:37.925Z,6.77
2018-04-30T10:53:05.671Z,5.13
2018-04-30T10:55:33.330Z,5.43
2018-04-30T10:58:00.886Z,5.47
2018-04-30T11:00:28.440Z,4.87
2018-04-30T11:02:56.041Z,6.40
2018-04-30T11:05:23.614Z,6.07
2018-04-30T11:07:51.941Z,6.37
2018-04-30T11:10:19.565Z,5.67
2018-04-30T11:12:47.146Z,6.17
2018-04-30T11:15:14.737Z,5.70
2018-04-30T11:17:42.333Z,6.43
2018-04-30T11:20:10.654Z,6.03
2018-04-30T11:22:38.637Z,5.90
2018-04-30T11:25:06.264Z,6.33
2018-04-30T11:27:33.862Z,4.80
2018-04-30T11:30:01.434Z,5.03
2018-04-30T11:32:30.295Z,4.87
2018-04-30T11:34:57.879Z,3.83
2018-04-30T11:37:26.816Z,3.73
2018-04-30T11:39:54.568Z,4.93
2018-04-30T11:42:22.080Z,3.40
2018-04-30T11:44:49.728Z,4.07
2018-04-30T11:47:17.315Z,5.83
2018-04-30T11:49:45.654Z,5.53
2018-04-30T11:52:13.246Z,4.57
2018-04-30T11:54:40.891Z,2.47
2018-04-30T11:57:08.553Z,3.80
2018-04-30T11:59:36.191Z,2.73
2018-04-30T12:02:03.798Z,5.07
2018-04-30T12:04:32.184Z,5.27
2018-04-30T12:07:00.523Z,4.63
2018-04-30T12:09:28.163Z,6.47
2018-04-30T12:11:55.810Z,5.10
2018-04-30T12:14:23.390Z,4.20
2018-04-30T12:16:50.977Z,5.33
2018-04-30T12:19:18.669Z,6.80
2018-04-30T12:21:46.254Z,6.53
2018-04-30T12:24:13.848Z,7.20
2018-04-30T12:26:41.589Z,4.23
2018-04-30T12:29:09.156Z,6.03
2018-04-30T12:31:36.812Z,5.80
2018-04-30T12:34:04.440Z,3.87
2018-04-30T12:36:32.030Z,4.33
2018-04-30T12:38:59.664Z,3.87
2018-04-30T12:41:27.235Z,5.00
2018-04-30T12:43:54.816Z,5.27
2018-04-30T12:46:22.578Z,6.60
2018-04-30T12:48:53.860Z,5.57
2018-04-30T12:51:22.234Z,4.57
2018-04-30T12:53:49.844Z,4.20
2018-04-30T12:56:17.415Z,6.20
2018-04-30T12:58:45.199Z,4.10
2018-04-30T13:01:12.805Z,6.23
2018-04-30T13:03:41.199Z,5.13
2018-04-30T13:06:08.831Z,5.30
2018-04-30T13:08:37.180Z,4.20
2018-04-30T13:11:04.844Z,4.57
2018-04-30T13:13:32.460Z,3.50
2018-04-30T13:16:00.825Z,3.93
2018-04-30T13:18:28.442Z,4.80
2018-04-30T13:20:56.062Z,4.93
2018-04-30T13:23:23.630Z,4.40
2018-04-30T13:25:51.210Z,5.17
2018-04-30T13:28:18.770Z,5.60
2018-04-30T13:30:46.354Z,5.47
2018-04-30T13:33:14.006Z,4.27
2018-04-30T13:35:41.737Z,4.57
2018-04-30T13:38:09.310Z,4.80
2018-04-30T13:40:36.854Z,5.50
2018-04-30T13:43:04.466Z,3.97
2018-04-30T13:45:32.833Z,6.47
2018-04-30T13:48:00.582Z,4.97
2018-04-30T13:50:28.976Z,7.60
2018-04-30T13:52:57.311Z,4.33
2018-04-30T13:55:24.965Z,4.43
2018-04-30T13:57:52.531Z,7.53
2018-04-30T14:00:20.099Z,4.87
2018-04-30T14:02:48.487Z,4.57
2018-04-30T14:05:16.050Z,8.43
2018-04-30T14:07:43.689Z,6.23
2018-04-30T14:10:11.265Z,4.10
2018-04-30T14:12:38.873Z,5.73
2018-04-30T14:15:07.199Z,5.13
2018-04-30T14:17:34.756Z,5.10
2018-04-30T14:20:02.364Z,6.63
2018-04-30T14:22:30.683Z,5.10
2018-04-30T14:24:58.416Z,6.27
2018-04-30T14:27:27.691Z,7.53
2018-04-30T14:29:56.540Z,4.97
2018-04-30T14:32:24.192Z,6.57
2018-04-30T14:34:51.750Z,5.67
2018-04-30T14:37:19.374Z,6.63
2018-04-30T14:39:47.733Z,6.03
2018-04-30T14:42:15.412Z,5.47
2018-04-30T14:44:43.837Z,5.97
2018-04-30T14:47:11.476Z,6.57
2018-04-30T14:49:39.065Z,4.93
2018-04-30T14:52:06.627Z,10.07
2018-04-30T14:54:34.175Z,5.57
2018-04-30T14:57:01.770Z,8.53
2018-04-30T14:59:29.368Z,7.53
2018-04-30T15:01:56.952Z,5.83
2018-04-30T15:04:24.528Z,6.87
2018-04-30T15:06:52.525Z,7.10
2018-04-30T15:09:20.163Z,5.73
2018-04-30T15:11:47.710Z,7.83
2018-04-30T15:14:15.371Z,6.90
2018-04-30T15:16:42.963Z,4.23
2018-04-30T15:19:10.529Z,6.00
2018-04-30T15:21:38.922Z,5.80
2018-04-30T15:24:07.243Z,6.17
2018-04-30T15:26:34.844Z,4.97
2018-04-30T15:29:03.183Z,6.93
2018-04-30T15:31:30.803Z,8.70
2018-04-30T15:33:58.369Z,3.70
2018-04-30T15:36:25.974Z,5.07
2018-04-30T15:38:54.446Z,4.60
2018-04-30T15:41:22.045Z,7.60
2018-04-30T15:43:50.390Z,6.13
2018-04-30T15:46:18.042Z,5.67
2018-04-30T15:48:45.673Z,5.67
2018-04-30T15:51:13.350Z,8.30
2018-04-30T15:53:40.964Z,8.17
2018-04-30T15:56:09.289Z,6.33
2018-04-30T15:58:36.906Z,10.43
2018-04-30T16:01:05.243Z,7.27
2018-04-30T16:03:32.843Z,6.13
2018-04-30T16:06:01.420Z,5.47
2018-04-30T16:08:30.933Z,6.83
2018-04-30T16:10:59.271Z,7.73
2018-04-30T16:13:26.868Z,10.07
2018-04-30T16:15:55.196Z,6.90
2018-04-30T16:18:22.808Z,8.70
2018-04-30T16:20:51.202Z,9.40
2018-04-30T16:23:18.772Z,6.50
2018-04-30T16:25:46.341Z,10.57
2018-04-30T16:28:13.935Z,5.37
2018-04-30T16:30:41.575Z,8.10
2018-04-30T16:33:09.148Z,8.20
2018-04-30T16:35:38.292Z,9.77
2018-04-30T16:38:05.883Z,7.13
2018-04-30T16:40:33.447Z,7.20
2018-04-30T16:43:01.064Z,6.80
2018-04-30T16:45:28.668Z,7.00
2018-04-30T16:47:56.255Z,6.63
2018-04-30T16:50:23.890Z,8.13
2018-04-30T16:52:51.991Z,20.83
2018-04-30T16:55:20.335Z,50.67
2018-04-30T16:57:47.977Z,34.20
2018-04-30T17:00:15.580Z,23.43
2018-04-30T17:02:43.168Z,10.37
2018-04-30T17:05:10.786Z,8.27
2018-04-30T17:07:38.429Z,10.03
2018-04-30T17:10:06.027Z,4.70
2018-04-30T17:12:34.441Z,9.63
2018-04-30T17:15:02.004Z,10.53
2018-04-30T17:17:29.684Z,14.60
2018-04-30T17:19:57.446Z,14.73
2018-04-30T17:22:25.074Z,10.03
2018-04-30T17:24:53.889Z,21.87
2018-04-30T17:27:21.486Z,28.90
2018-04-30T17:29:49.063Z,20.53
2018-04-30T17:32:17.390Z,10.73
2018-04-30T17:34:45.017Z,7.87
2018-04-30T17:37:14.252Z,10.63
2018-04-30T17:39:41.835Z,9.77
2018-04-30T17:42:09.410Z,7.93
2018-04-30T17:44:37.006Z,10.73
2018-04-30T17:47:04.570Z,10.13
2018-04-30T17:49:32.178Z,10.37
2018-04-30T17:52:00.015Z,6.97
2018-04-30T17:54:27.659Z,9.77
2018-04-30T17:56:55.176Z,12.07
2018-04-30T17:59:23.099Z,14.53
2018-04-30T18:01:50.667Z,11.93
2018-04-30T18:04:18.222Z,10.17
2018-04-30T18:06:46.271Z,11.63
2018-04-30T18:09:13.754Z,7.30
2018-04-30T18:11:41.355Z,10.10
2018-04-30T18:14:09.717Z,6.73
2018-04-30T18:16:38.071Z,7.47
2018-04-30T18:19:05.661Z,7.10
2018-04-30T18:21:33.240Z,9.00
2018-04-30T18:24:01.616Z,8.00
2018-04-30T18:26:29.964Z,8.20
2018-04-30T18:28:59.093Z,12.63
2018-04-30T18:31:27.706Z,8.57
2018-04-30T18:33:55.343Z,9.83
2018-04-30T18:36:22.910Z,12.63
2018-04-30T18:38:50.544Z,10.33
2018-04-30T18:41:18.083Z,7.60
2018-04-30T18:43:46.833Z,9.37
2018-04-30T18:46:14.504Z,7.37
2018-04-30T18:48:42.071Z,8.10
2018-04-30T18:51:09.659Z,9.10
2018-04-30T18:53:37.281Z,7.43
2018-04-30T18:56:04.837Z,11.10
2018-04-30T18:58:32.411Z,11.83
2018-04-30T19:01:00.165Z,9.67
2018-04-30T19:03:27.756Z,12.30
2018-04-30T19:05:56.088Z,9.57
2018-04-30T19:08:23.671Z,8.77
2018-04-30T19:10:51.248Z,10.33
2018-04-30T19:13:19.636Z,9.80
2018-04-30T19:15:47.965Z,8.13
2018-04-30T19:18:15.551Z,8.90
2018-04-30T19:20:43.171Z,10.33
2018-04-30T19:23:10.737Z,9.27
2018-04-30T19:25:38.304Z,8.87
2018-04-30T19:28:06.051Z,8.47
2018-04-30T19:30:33.628Z,8.60
2018-04-30T19:33:01.184Z,9.50
2018-04-30T19:35:28.811Z,10.03
2018-04-30T19:37:57.140Z,9.73
2018-04-30T19:40:24.739Z,11.40
2018-04-30T19:42:53.111Z,7.83
2018-04-30T19:45:21.472Z,9.43
2018-04-30T19:47:49.108Z,11.23
2018-04-30T19:50:16.709Z,8.57
2018-04-30T19:52:45.042Z,8.47
2018-04-30T19:55:12.680Z,7.50
2018-04-30T19:57:40.309Z,9.70
2018-04-30T20:00:08.638Z,7.47
2018-04-30T20:02:36.199Z,10.67
2018-04-30T20:05:03.819Z,5.60
2018-04-30T20:07:32.249Z,12.40
2018-04-30T20:09:59.848Z,10.77
2018-04-30T20:12:28.192Z,9.40
2018-04-30T20:14:55.819Z,7.67
2018-04-30T20:17:23.394Z,10.03
2018-04-30T20:19:51.031Z,10.17
2018-04-30T20:22:18.673Z,8.20
2018-04-30T20:24:47.003Z,8.63
2018-04-30T20:27:14.656Z,8.80
2018-04-30T20:29:42.294Z,8.40
2018-04-30T20:32:10.514Z,9.97
2018-04-30T20:34:38.069Z,8.07
2018-04-30T20:37:06.121Z,10.13
2018-04-30T20:39:33.696Z,10.67
2018-04-30T20:42:01.256Z,8.37
2018-04-30T20:44:28.920Z,9.77
2018-04-30T20:46:56.462Z,7.27
2018-04-30T20:49:24.070Z,9.63
2018-04-30T20:51:52.419Z,11.40
2018-04-30T20:54:20.792Z,9.67
2018-04-30T20:56:48.447Z,11.53
2018-04-30T20:59:16.019Z,9.80
2018-04-30T21:01:43.635Z,10.37
2018-04-30T21:04:11.232Z,13.03
2018-04-30T21:06:39.574Z,10.67
2018-04-30T21:09:16.029Z,9.87
2018-04-30T21:11:43.590Z,11.03
2018-04-30T21:14:11.181Z,10.87
2018-04-30T21:16:38.798Z,10.60
2018-04-30T21:19:07.251Z,10.30
2018-04-30T21:21:34.821Z,10.30
2018-04-30T21:24:03.897Z,11.17
2018-04-30T21:26:31.489Z,9.53
2018-04-30T21:28:59.861Z,9.60
2018-04-30T21:31:28.240Z,9.33
2018-04-30T21:33:56.634Z,10.03
2018-04-30T21:36:24.226Z,10.43
2018-04-30T21:38:51.899Z,10.47
2018-04-30T21:41:19.489Z,11.93
2018-04-30T21:43:47.045Z,9.37
2018-04-30T21:46:14.644Z,10.33
2018-04-30T21:48:42.236Z,11.47
2018-04-30T21:51:09.868Z,9.77
2018-04-30T21:53:37.424Z,9.57
2018-04-30T21:56:04.985Z,12.63
2018-04-30T21:58:32.590Z,9.00
2018-04-30T22:01:00.161Z,11.30
2018-04-30T22:03:29.221Z,8.77
2018-04-30T22:05:56.826Z,10.53
2018-04-30T22:08:25.508Z,9.30
2018-04-30T22:10:53.836Z,11.43
2018-04-30T22:13:21.382Z,8.83
2018-04-30T22:15:49.069Z,9.63
2018-04-30T22:18:16.928Z,11.00
2018-04-30T22:20:44.571Z,13.10
2018-04-30T22:23:12.179Z,12.57
2018-04-30T22:25:39.775Z,9.60
2018-04-30T22:28:07.346Z,10.50
2018-04-30T22:30:36.047Z,13.23
2018-04-30T22:33:03.623Z,10.37
2018-04-30T22:35:31.457Z,12.97
2018-04-30T22:37:59.586Z,10.17
2018-04-30T22:40:27.170Z,10.70
2018-04-30T22:42:55.704Z,12.27
2018-04-30T22:45:23.316Z,12.57
2018-04-30T22:47:51.658Z,9.93
2018-04-30T22:50:19.300Z,13.57
2018-04-30T22:52:46.878Z,11.23
2018-04-30T22:55:15.035Z,10.23
2018-04-30T22:57:42.713Z,11.87
2018-04-30T23:00:10.348Z,11.80
2018-04-30T23:02:37.960Z,10.27
2018-04-30T23:05:06.374Z,8.97
2018-04-30T23:07:34.288Z,8.70
2018-04-30T23:10:01.848Z,11.30
2018-04-30T23:12:30.286Z,10.63
2018-04-30T23:14:57.913Z,10.37
2018-04-30T23:17:26.250Z,9.23
2018-04-30T23:19:53.848Z,9.57
2018-04-30T23:22:22.265Z,10.07
2018-04-30T23:24:49.842Z,8.83
2018-04-30T23:27:17.421Z,11.47
2018-04-30T23:29:45.062Z,9.47
2018-04-30T23:32:12.728Z,10.60
2018-04-30T23:34:40.303Z,8.73
2018-04-30T23:37:08.751Z,11.17
2018-04-30T23:39:36.373Z,9.20
2018-04-30T23:42:03.962Z,10.23
2018-04-30T23:44:31.626Z,9.40
2018-04-30T23:46:59.224Z,7.40
2018-04-30T23:49:26.806Z,11.17
2018-04-30T23:51:55.184Z,8.47
2018-04-30T23:54:23.524Z,10.43
2018-04-30T23:56:51.167Z,8.07
2018-04-30T23:59:18.757Z,7.53
